Time;durP1;ratioP1;P1;durP2;ratioP2;P2;SDS_P1;SDS_P2;PMS_P1;PMS_P2;Temp;Humidity;BMP_temperature;BMP_pressure;BME280_temperature;BME280_humidity;BME280_pressure;Samples;Min_cycle;Max_cycle;Signal;HPM_P1;HPM_P2
2021/11/10 00:02:25;;;;;;;19.60;7.03;;;9.40;99.90;;;;;;5019674;28;20037;-68
2021/11/10 00:04:51;;;;;;;19.73;7.53;;;9.40;99.90;;;;;;5027761;28;20037;-68
2021/11/10 00:07:17;;;;;;;20.63;7.47;;;9.40;99.90;;;;;;4995253;28;20042;-68
2021/11/10 00:09:42;;;;;;;18.52;6.95;;;9.50;99.90;;;;;;4987749;28;20053;-68
2021/11/10 00:12:08;;;;;;;19.50;6.30;;;9.40;99.90;;;;;;5020147;28;20034;-68
2021/11/10 00:14:34;;;;;;;22.20;7.38;;;9.40;99.90;;;;;;5026532;28;20060;-68
2021/11/10 00:17:01;;;;;;;19.25;6.90;;;9.40;99.90;;;;;;5001561;28;20058;-68
2021/11/10 00:19:27;;;;;;;21.95;7.22;;;9.40;99.90;;;;;;5007807;28;20050;-68
2021/11/10 00:21:53;;;;;;;15.95;7.00;;;9.40;99.90;;;;;;5003628;28;20049;-68
2021/11/10 00:24:19;;;;;;;22.05;7.60;;;9.40;99.90;;;;;;5028855;28;20037;-68
2021/11/10 00:26:45;;;;;;;20.52;7.28;;;9.30;99.90;;;;;;5016514;28;20056;-68
2021/11/10 00:29:11;;;;;;;20.42;7.15;;;9.30;99.90;;;;;;5001852;28;20045;-68
2021/11/10 00:31:36;;;;;;;18.08;6.75;;;9.40;99.90;;;;;;5004862;28;20095;-68
2021/11/10 00:34:02;;;;;;;19.80;7.20;;;9.30;99.90;;;;;;5007460;28;20571;-68
2021/11/10 00:36:28;;;;;;;16.83;6.78;;;9.40;99.90;;;;;;5021250;28;20043;-68
2021/11/10 00:38:54;;;;;;;20.13;7.32;;;9.30;99.90;;;;;;5011265;28;20130;-68
2021/11/10 00:41:19;;;;;;;15.70;7.10;;;9.30;99.90;;;;;;5024589;28;20508;-68
2021/11/10 00:43:46;;;;;;;19.73;7.82;;;9.30;99.90;;;;;;4998926;28;20375;-68
2021/11/10 00:46:11;;;;;;;22.15;7.60;;;9.30;99.90;;;;;;5008898;28;20041;-68
2021/11/10 00:48:38;;;;;;;19.88;6.88;;;9.40;99.90;;;;;;5019313;28;20171;-68
2021/11/10 00:51:04;;;;;;;21.02;7.25;;;9.30;99.90;;;;;;5023513;28;20037;-68
2021/11/10 00:53:29;;;;;;;20.52;7.43;;;9.30;99.90;;;;;;5001922;28;20235;-68
2021/11/10 00:55:55;;;;;;;21.30;7.13;;;9.30;99.90;;;;;;5028971;28;20253;-68
2021/11/10 00:58:21;;;;;;;22.45;7.07;;;9.30;99.90;;;;;;5014958;28;20391;-68
2021/11/10 01:00:47;;;;;;;16.90;7.13;;;9.30;99.90;;;;;;5019759;28;20500;-68
2021/11/10 01:03:13;;;;;;;18.05;7.35;;;9.30;99.90;;;;;;5000524;28;20409;-68
2021/11/10 01:05:40;;;;;;;19.48;7.70;;;9.30;99.90;;;;;;5026760;28;20132;-68
2021/11/10 01:08:07;;;;;;;18.80;7.50;;;9.30;99.90;;;;;;5003051;28;20041;-68
2021/11/10 01:10:33;;;;;;;23.75;7.70;;;9.40;99.90;;;;;;5022979;28;20033;-68
2021/11/10 01:12:59;;;;;;;18.70;7.05;;;9.30;99.90;;;;;;5024424;28;20045;-68
2021/11/10 01:15:25;;;;;;;20.30;8.00;;;9.30;99.90;;;;;;5021575;28;20133;-68
2021/11/10 01:17:51;;;;;;;23.42;7.40;;;9.30;99.90;;;;;;5006704;28;20139;-68
2021/11/10 01:20:17;;;;;;;20.40;7.50;;;9.30;99.90;;;;;;4999062;28;20195;-68
2021/11/10 01:22:43;;;;;;;23.98;7.95;;;9.20;99.90;;;;;;5001048;28;20187;-68
2021/11/10 01:25:10;;;;;;;23.13;7.70;;;9.20;99.90;;;;;;5019846;28;20041;-68
2021/11/10 01:27:37;;;;;;;17.90;7.93;;;9.20;99.90;;;;;;5016234;28;20095;-68
2021/11/10 01:30:06;;;;;;;23.15;7.85;;;9.20;99.90;;;;;;5020994;28;20050;-68
2021/11/10 01:32:32;;;;;;;19.65;8.07;;;9.20;99.90;;;;;;5022946;28;20130;-68
2021/11/10 01:34:58;;;;;;;23.83;7.68;;;9.20;99.90;;;;;;5019048;28;20073;-68
2021/11/10 01:37:23;;;;;;;17.45;7.72;;;9.20;99.90;;;;;;5026268;28;20042;-68
2021/11/10 01:39:49;;;;;;;22.17;8.65;;;9.20;99.90;;;;;;5018419;28;20115;-68
2021/11/10 01:42:15;;;;;;;17.05;7.93;;;9.10;99.90;;;;;;5019629;28;20037;-68
2021/11/10 01:44:41;;;;;;;19.55;8.32;;;9.10;99.90;;;;;;5019070;28;20041;-68
2021/11/10 01:47:09;;;;;;;20.10;8.05;;;9.10;99.90;;;;;;5009658;28;20151;-68
2021/11/10 01:49:37;;;;;;;17.52;8.20;;;9.10;99.90;;;;;;5004082;28;20103;-68
2021/11/10 01:52:04;;;;;;;20.85;8.32;;;9.10;99.90;;;;;;5002015;28;20501;-68
2021/11/10 01:54:32;;;;;;;20.73;7.97;;;9.10;99.90;;;;;;5023828;28;20038;-68
2021/11/10 01:56:59;;;;;;;18.58;7.82;;;9.10;99.90;;;;;;5006419;28;20037;-68
2021/11/10 01:59:32;;;;;;;20.42;7.88;;;9.10;99.90;;;;;;5010467;28;20042;-68
2021/11/10 02:01:59;;;;;;;19.02;8.73;;;9.10;99.90;;;;;;5020246;28;20049;-68
2021/11/10 02:04:29;;;;;;;21.45;8.07;;;9.10;99.90;;;;;;5026896;28;20115;-68
2021/11/10 02:06:56;;;;;;;18.85;8.27;;;9.10;99.90;;;;;;5025121;28;20049;-68
2021/11/10 02:09:23;;;;;;;20.60;8.32;;;9.10;99.90;;;;;;5027000;28;20654;-68
2021/11/10 02:11:50;;;;;;;17.95;8.00;;;9.10;99.90;;;;;;5020706;28;20056;-68
2021/11/10 02:14:18;;;;;;;18.83;8.68;;;9.10;99.90;;;;;;5006895;28;20045;-68
2021/11/10 02:16:44;;;;;;;17.98;7.25;;;9.10;99.90;;;;;;5003801;28;20044;-68
2021/11/10 02:19:11;;;;;;;21.65;8.60;;;9.10;99.90;;;;;;5011461;28;20064;-68
2021/11/10 02:21:49;;;;;;;21.33;8.10;;;9.00;99.90;;;;;;5024974;28;20046;-68
2021/11/10 02:24:16;;;;;;;18.55;8.40;;;9.10;99.90;;;;;;5028144;28;20037;-68
2021/11/10 02:26:43;;;;;;;20.70;9.13;;;9.10;99.90;;;;;;5004260;28;20088;-68
2021/11/10 02:29:18;;;;;;;19.98;8.30;;;9.10;99.90;;;;;;5009135;28;20911;-68
2021/11/10 02:31:45;;;;;;;20.90;9.48;;;9.10;99.90;;;;;;5021620;28;20128;-68
2021/11/10 02:34:11;;;;;;;21.00;8.65;;;9.10;99.90;;;;;;5028814;28;20064;-68
2021/11/10 02:36:37;;;;;;;16.63;8.57;;;9.10;99.90;;;;;;5005281;28;20038;-68
2021/11/10 02:39:10;;;;;;;20.88;9.48;;;9.10;99.90;;;;;;5009622;28;20060;-68
2021/11/10 02:41:38;;;;;;;19.20;8.82;;;9.10;99.90;;;;;;5008195;28;20149;-68
2021/11/10 02:44:06;;;;;;;21.60;9.68;;;9.10;99.90;;;;;;5005251;28;20071;-68
2021/11/10 02:46:34;;;;;;;21.25;9.48;;;9.10;99.90;;;;;;5007772;28;20111;-67
2021/11/10 02:49:00;;;;;;;18.13;9.43;;;9.10;99.90;;;;;;5023113;28;20116;-67
2021/11/10 02:51:25;;;;;;;17.15;9.77;;;9.10;99.90;;;;;;5005072;28;20133;-67
2021/11/10 02:53:51;;;;;;;23.45;9.20;;;9.20;99.90;;;;;;5019361;28;20034;-67
2021/11/10 02:56:17;;;;;;;18.52;8.95;;;9.10;99.90;;;;;;5022176;28;20478;-67
2021/11/10 02:58:43;;;;;;;19.60;9.88;;;9.20;99.90;;;;;;5021655;28;20040;-67
2021/11/10 03:01:09;;;;;;;18.58;9.73;;;9.20;99.90;;;;;;5009379;28;20041;-68
2021/11/10 03:03:35;;;;;;;18.63;9.57;;;9.20;99.90;;;;;;5005990;28;20033;-67
2021/11/10 03:06:01;;;;;;;19.58;9.15;;;9.20;99.90;;;;;;4989767;28;20176;-67
2021/11/10 03:08:27;;;;;;;21.05;9.85;;;9.20;99.90;;;;;;5024408;28;20037;-67
2021/11/10 03:10:53;;;;;;;15.75;9.00;;;9.20;99.90;;;;;;5004339;28;20041;-67
2021/11/10 03:13:19;;;;;;;21.65;9.32;;;9.20;99.90;;;;;;5017692;28;20063;-67
2021/11/10 03:15:46;;;;;;;21.15;9.25;;;9.20;99.90;;;;;;5029539;28;20033;-67
2021/11/10 03:18:13;;;;;;;18.40;8.68;;;9.20;99.90;;;;;;5021101;28;20041;-67
2021/11/10 03:20:38;;;;;;;17.98;8.93;;;9.20;99.90;;;;;;5009640;28;20037;-67
2021/11/10 03:23:05;;;;;;;22.60;8.38;;;9.20;99.90;;;;;;5027041;28;20045;-67
2021/11/10 03:25:31;;;;;;;16.95;7.75;;;9.20;99.90;;;;;;5022647;28;20049;-67
2021/11/10 03:27:57;;;;;;;16.73;8.25;;;9.20;99.90;;;;;;5004898;28;20096;-67
2021/11/10 03:30:24;;;;;;;16.92;8.13;;;9.20;99.90;;;;;;5002684;28;20033;-67
2021/11/10 03:32:51;;;;;;;19.73;7.80;;;9.20;99.90;;;;;;5008644;28;20037;-67
2021/11/10 03:35:19;;;;;;;16.98;8.27;;;9.20;99.90;;;;;;4982428;28;20053;-67
2021/11/10 03:37:45;;;;;;;13.73;7.40;;;9.20;99.90;;;;;;5024171;28;20453;-67
2021/11/10 03:40:12;;;;;;;19.27;7.70;;;9.20;99.90;;;;;;5019363;28;20128;-67
2021/11/10 03:42:38;;;;;;;13.70;7.25;;;9.20;99.90;;;;;;5022910;28;20045;-67
2021/11/10 03:45:05;;;;;;;18.77;7.35;;;9.20;99.90;;;;;;5021859;28;20381;-67
2021/11/10 03:47:31;;;;;;;16.23;7.40;;;9.20;99.90;;;;;;5008465;28;20053;-67
2021/11/10 03:49:57;;;;;;;15.18;7.75;;;9.20;99.90;;;;;;5022706;28;20482;-67
2021/11/10 03:52:23;;;;;;;18.88;8.50;;;9.20;99.90;;;;;;5006868;28;20447;-67
2021/11/10 03:54:49;;;;;;;19.33;8.20;;;9.20;99.90;;;;;;5001977;28;20452;-67
2021/11/10 03:57:15;;;;;;;18.90;8.02;;;9.10;99.90;;;;;;5007519;28;20830;-67
2021/11/10 03:59:41;;;;;;;18.20;8.50;;;9.10;99.90;;;;;;5021025;28;20091;-67
2021/11/10 04:02:09;;;;;;;19.48;8.27;;;9.20;99.90;;;;;;5022753;28;20049;-67
2021/11/10 04:04:35;;;;;;;19.90;8.02;;;9.10;99.90;;;;;;5003821;28;20061;-67
2021/11/10 04:07:00;;;;;;;16.70;8.52;;;9.20;99.90;;;;;;5000333;28;20034;-67
2021/11/10 04:09:27;;;;;;;16.95;8.20;;;9.10;99.90;;;;;;5026070;28;20021;-67
2021/11/10 04:11:53;;;;;;;15.20;8.35;;;9.10;99.90;;;;;;5013701;28;20049;-67
2021/11/10 04:14:19;;;;;;;15.95;7.75;;;9.10;99.90;;;;;;5024025;28;20048;-67
2021/11/10 04:16:45;;;;;;;20.40;8.70;;;9.20;99.90;;;;;;5021147;28;20116;-67
2021/11/10 04:19:11;;;;;;;19.70;8.30;;;9.10;99.90;;;;;;5005243;28;20057;-67
2021/11/10 04:21:37;;;;;;;14.20;8.32;;;9.10;99.90;;;;;;5019532;28;20421;-67
2021/11/10 04:24:04;;;;;;;14.18;7.95;;;9.10;99.90;;;;;;5028342;28;20400;-67
2021/11/10 04:26:33;;;;;;;18.73;8.18;;;9.10;99.90;;;;;;5018461;28;20320;-67
2021/11/10 04:29:00;;;;;;;17.25;8.00;;;9.10;99.90;;;;;;5021333;28;20041;-68
2021/11/10 04:31:26;;;;;;;16.88;8.57;;;9.10;99.90;;;;;;5003557;28;20076;-67
2021/11/10 04:33:53;;;;;;;18.42;9.73;;;9.00;99.90;;;;;;5026081;28;20417;-68
2021/11/10 04:36:19;;;;;;;15.23;8.43;;;9.10;99.90;;;;;;5015729;28;20038;-68
2021/11/10 04:38:45;;;;;;;15.15;8.48;;;9.10;99.90;;;;;;5004816;28;20144;-68
2021/11/10 04:41:11;;;;;;;18.33;8.63;;;9.10;99.90;;;;;;5009802;28;20053;-68
2021/11/10 04:43:37;;;;;;;17.10;9.35;;;9.10;99.90;;;;;;5023922;28;20037;-68
2021/11/10 04:48:31;;;;;;;19.95;10.85;;;9.10;99.90;;;;;;5020656;28;20045;-68
2021/11/10 04:50:56;;;;;;;13.20;8.50;;;9.10;99.90;;;;;;5008665;28;20064;-68
2021/11/10 04:53:22;;;;;;;15.18;9.63;;;9.10;99.90;;;;;;5017222;28;20160;-68
2021/11/10 04:55:49;;;;;;;15.20;9.32;;;9.10;99.90;;;;;;5009411;28;20029;-68
2021/11/10 04:58:14;;;;;;;17.80;9.32;;;9.10;99.90;;;;;;5020981;28;20076;-68
2021/11/10 05:00:41;;;;;;;23.00;10.57;;;9.00;99.90;;;;;;5026605;28;20501;-68
2021/11/10 05:03:07;;;;;;;16.30;10.25;;;9.00;99.90;;;;;;5018318;28;20069;-68
2021/11/10 05:05:33;;;;;;;16.95;10.18;;;9.00;99.90;;;;;;5024691;28;20114;-68
2021/11/10 05:07:59;;;;;;;17.42;9.68;;;9.00;99.90;;;;;;5003913;28;20530;-68
2021/11/10 05:10:25;;;;;;;18.08;9.90;;;9.00;99.90;;;;;;5010301;28;20112;-68
2021/11/10 05:12:51;;;;;;;17.42;10.55;;;9.00;99.90;;;;;;5018004;28;20229;-68
2021/11/10 05:15:16;;;;;;;17.92;10.50;;;9.00;99.90;;;;;;5026216;28;20071;-68
2021/11/10 05:17:42;;;;;;;19.95;10.55;;;8.90;99.90;;;;;;5020742;28;20501;-68
2021/11/10 05:20:08;;;;;;;15.65;10.52;;;8.90;99.90;;;;;;5022032;28;20033;-68
2021/11/10 05:22:34;;;;;;;17.75;10.90;;;8.80;99.90;;;;;;4993205;28;20136;-68
2021/11/10 05:25:00;;;;;;;17.05;11.55;;;8.80;99.90;;;;;;5002467;28;20148;-68
2021/11/10 05:27:25;;;;;;;20.58;10.32;;;8.80;99.90;;;;;;5021569;28;20132;-68
2021/11/10 05:29:51;;;;;;;19.75;11.55;;;8.80;99.90;;;;;;5002111;28;20067;-68
2021/11/10 05:32:17;;;;;;;20.60;10.70;;;8.70;99.90;;;;;;5017872;28;20328;-68
2021/11/10 05:34:43;;;;;;;19.15;10.93;;;8.70;99.90;;;;;;5019434;28;20049;-68
2021/11/10 05:37:08;;;;;;;17.63;10.95;;;8.70;99.90;;;;;;5027342;28;20033;-68
2021/11/10 05:39:34;;;;;;;16.13;10.60;;;8.60;99.90;;;;;;5022071;28;20163;-68
2021/11/10 05:42:00;;;;;;;18.65;11.05;;;8.60;99.90;;;;;;5024449;28;20046;-68
2021/11/10 05:44:26;;;;;;;16.65;10.48;;;8.60;99.90;;;;;;5004437;28;20037;-68
2021/11/10 05:46:51;;;;;;;16.38;10.45;;;8.60;99.90;;;;;;5005225;28;20120;-68
2021/11/10 05:49:17;;;;;;;16.50;10.68;;;8.50;99.90;;;;;;5007554;28;20042;-68
2021/11/10 05:51:43;;;;;;;17.20;10.95;;;8.50;99.90;;;;;;5003189;28;20486;-68
2021/11/10 05:54:09;;;;;;;21.20;12.02;;;8.50;99.90;;;;;;5020640;28;20439;-68
2021/11/10 05:56:38;;;;;;;19.50;11.02;;;8.40;99.90;;;;;;5003479;28;20038;-68
2021/11/10 05:59:04;;;;;;;21.90;11.85;;;8.40;99.90;;;;;;5006870;28;20051;-68
2021/11/10 06:01:33;;;;;;;22.25;11.45;;;8.40;99.90;;;;;;4998666;28;20486;-68
2021/11/10 06:03:59;;;;;;;16.58;11.43;;;8.30;99.90;;;;;;5007847;28;20050;-67
2021/11/10 06:06:27;;;;;;;18.58;10.70;;;8.40;99.90;;;;;;4999901;28;20076;-67
2021/11/10 06:08:53;;;;;;;18.67;11.52;;;8.40;99.90;;;;;;5025424;28;20466;-67
2021/11/10 06:11:20;;;;;;;17.58;12.00;;;8.30;99.90;;;;;;5002683;28;20057;-67
2021/11/10 06:13:45;;;;;;;16.45;10.88;;;8.30;99.90;;;;;;5006093;28;20053;-67
2021/11/10 06:16:11;;;;;;;20.20;12.65;;;8.30;99.90;;;;;;5003694;28;20374;-67
2021/11/10 06:18:37;;;;;;;20.65;11.32;;;8.30;99.90;;;;;;5020511;28;20041;-67
2021/11/10 06:21:04;;;;;;;19.63;11.65;;;8.30;99.90;;;;;;5000244;28;20042;-67
2021/11/10 06:23:30;;;;;;;24.88;11.80;;;8.30;99.90;;;;;;5002065;28;20043;-67
2021/11/10 06:25:57;;;;;;;21.70;10.90;;;8.40;99.90;;;;;;5020073;28;20482;-67
2021/11/10 06:28:23;;;;;;;20.77;12.18;;;8.30;99.90;;;;;;5010653;28;20830;-67
2021/11/10 06:30:49;;;;;;;18.77;11.68;;;8.30;99.90;;;;;;5020267;28;20045;-67
2021/11/10 06:33:15;;;;;;;18.67;11.38;;;8.30;99.90;;;;;;5005473;28;20045;-67
2021/11/10 06:35:41;;;;;;;22.50;11.60;;;8.30;99.90;;;;;;5002828;28;20073;-67
2021/11/10 06:38:06;;;;;;;18.40;12.52;;;8.30;99.90;;;;;;5006190;28;20080;-66
2021/11/10 06:40:32;;;;;;;23.08;12.57;;;8.30;99.90;;;;;;5021660;28;20049;-67
2021/11/10 06:42:58;;;;;;;20.92;12.82;;;8.30;99.90;;;;;;5006436;28;20144;-67
2021/11/10 06:45:24;;;;;;;20.17;12.63;;;8.30;99.90;;;;;;5028914;28;20033;-67
2021/11/10 06:47:50;;;;;;;22.05;11.82;;;8.30;99.90;;;;;;5024097;28;20041;-67
2021/11/10 06:50:16;;;;;;;20.95;12.40;;;8.30;99.90;;;;;;5010527;28;20033;-67
2021/11/10 06:52:42;;;;;;;24.40;12.18;;;8.30;99.90;;;;;;5006190;28;20050;-67
2021/11/10 06:55:10;;;;;;;21.67;12.48;;;8.30;99.90;;;;;;5029420;28;20037;-67
2021/11/10 06:57:37;;;;;;;19.67;12.45;;;8.30;99.90;;;;;;5002882;28;20058;-67
2021/11/10 07:00:08;;;;;;;20.40;12.52;;;8.30;99.90;;;;;;5026499;28;20153;-67
2021/11/10 07:02:34;;;;;;;24.40;12.95;;;8.30;99.90;;;;;;5019287;28;20054;-67
2021/11/10 07:04:59;;;;;;;18.48;12.35;;;8.30;99.90;;;;;;5021932;28;20048;-67
2021/11/10 07:07:25;;;;;;;25.05;12.77;;;8.30;99.90;;;;;;5000409;28;20100;-67
2021/11/10 07:09:51;;;;;;;17.15;12.75;;;8.30;99.90;;;;;;5003177;28;20417;-67
2021/11/10 07:12:17;;;;;;;20.95;12.95;;;8.30;99.90;;;;;;5018301;28;20033;-67
2021/11/10 07:14:42;;;;;;;18.92;12.85;;;8.40;99.90;;;;;;5004317;28;20080;-67
2021/11/10 07:17:08;;;;;;;19.88;12.25;;;8.40;99.90;;;;;;5001726;28;20049;-67
2021/11/10 07:19:34;;;;;;;19.98;12.80;;;8.40;99.90;;;;;;4996376;28;20144;-67
2021/11/10 07:22:01;;;;;;;16.15;11.95;;;8.40;99.90;;;;;;5023073;28;20034;-67
2021/11/10 07:24:26;;;;;;;20.40;13.55;;;8.50;99.90;;;;;;5023944;28;20043;-67
2021/11/10 07:26:52;;;;;;;20.30;13.02;;;8.50;99.90;;;;;;5021226;28;20084;-67
2021/11/10 07:29:18;;;;;;;19.00;12.50;;;8.50;99.90;;;;;;5019013;28;20046;-67
2021/11/10 07:31:44;;;;;;;18.60;12.73;;;8.60;99.90;;;;;;5019670;28;20049;-67
2021/11/10 07:34:10;;;;;;;20.25;12.55;;;8.60;99.90;;;;;;5018356;28;20402;-67
2021/11/10 07:36:36;;;;;;;19.75;13.13;;;8.60;99.90;;;;;;4990984;28;20062;-67
2021/11/10 07:39:03;;;;;;;22.10;12.88;;;8.60;99.90;;;;;;4996293;28;20627;-67
2021/11/10 07:41:32;;;;;;;20.00;12.27;;;8.70;99.90;;;;;;5008463;28;20049;-67
2021/11/10 07:43:58;;;;;;;20.65;12.57;;;8.70;99.90;;;;;;4991147;28;20533;-67
2021/11/10 07:46:27;;;;;;;19.17;12.95;;;8.80;99.90;;;;;;5003979;28;20164;-67
2021/11/10 07:48:53;;;;;;;23.20;13.27;;;8.80;99.90;;;;;;5001792;28;20615;-67
2021/11/10 07:51:19;;;;;;;17.60;12.07;;;8.90;99.90;;;;;;5006689;28;20038;-67
2021/11/10 07:53:46;;;;;;;20.90;13.27;;;8.90;99.90;;;;;;5003402;28;20037;-67
2021/11/10 07:56:12;;;;;;;20.00;12.32;;;8.90;99.90;;;;;;5007506;28;20420;-67
2021/11/10 07:58:39;;;;;;;25.15;12.80;;;9.00;99.90;;;;;;5003897;28;20030;-67
2021/11/10 08:01:06;;;;;;;18.50;12.30;;;9.00;99.90;;;;;;5003187;28;20045;-67
2021/11/10 08:03:33;;;;;;;21.52;12.27;;;9.10;99.90;;;;;;5009955;28;20121;-67
2021/11/10 08:05:59;;;;;;;19.48;11.65;;;9.20;99.90;;;;;;5000194;28;20088;-67
2021/11/10 08:08:25;;;;;;;19.90;12.35;;;9.10;99.90;;;;;;5005158;28;20140;-67
2021/11/10 08:10:55;;;;;;;20.98;12.20;;;9.20;99.90;;;;;;5003333;28;20073;-67
2021/11/10 08:13:22;;;;;;;20.85;11.68;;;9.20;99.90;;;;;;5004398;28;20100;-67
2021/11/10 08:15:53;;;;;;;20.00;11.57;;;9.30;99.90;;;;;;5002936;28;20057;-67
2021/11/10 08:18:19;;;;;;;19.98;11.52;;;9.30;99.90;;;;;;5002330;28;20129;-67
2021/11/10 08:20:45;;;;;;;18.38;11.52;;;9.30;99.90;;;;;;5001346;28;20119;-67
2021/11/10 08:23:19;;;;;;;20.98;12.07;;;9.40;99.90;;;;;;5007614;28;20054;-67
2021/11/10 08:25:49;;;;;;;21.15;11.93;;;9.40;99.90;;;;;;5000434;28;20034;-67
2021/11/10 08:28:15;;;;;;;22.77;11.00;;;9.50;99.90;;;;;;5005898;28;20085;-67
2021/11/10 08:30:41;;;;;;;20.15;11.38;;;9.60;99.90;;;;;;5003564;28;20111;-67
2021/11/10 08:33:07;;;;;;;23.77;10.77;;;9.60;99.90;;;;;;5007580;28;20341;-67
2021/11/10 08:35:33;;;;;;;18.83;10.57;;;9.70;99.90;;;;;;4995193;28;20592;-67
2021/11/10 08:37:59;;;;;;;21.10;11.55;;;9.70;99.90;;;;;;5007255;28;20065;-67
2021/11/10 08:40:25;;;;;;;19.55;11.52;;;9.80;99.90;;;;;;5028782;28;20091;-67
2021/11/10 08:42:52;;;;;;;21.58;10.70;;;9.80;99.90;;;;;;5020274;28;20045;-67
2021/11/10 08:45:23;;;;;;;24.85;11.70;;;9.90;99.90;;;;;;5020024;28;20154;-67
2021/11/10 08:47:51;;;;;;;18.42;11.32;;;9.90;99.90;;;;;;5020733;28;20038;-66
2021/11/10 08:50:20;;;;;;;22.23;11.82;;;9.90;99.90;;;;;;5026940;28;20060;-66
2021/11/10 08:52:47;;;;;;;17.42;11.15;;;9.90;99.90;;;;;;5020448;28;20099;-67
2021/11/10 08:55:15;;;;;;;21.25;10.48;;;9.90;99.90;;;;;;5025572;28;20045;-67
2021/11/10 08:57:43;;;;;;;20.23;10.93;;;9.90;99.90;;;;;;5022821;28;20497;-67
2021/11/10 09:00:13;;;;;;;24.25;12.00;;;9.90;99.90;;;;;;5025647;28;20045;-67
2021/11/10 09:02:39;;;;;;;21.85;11.65;;;9.90;99.90;;;;;;5000646;28;20053;-67
2021/11/10 09:05:06;;;;;;;25.08;11.00;;;9.90;99.90;;;;;;5006946;28;20441;-67
2021/11/10 09:07:32;;;;;;;22.67;11.15;;;9.80;99.90;;;;;;5022236;28;20110;-67
2021/11/10 09:09:59;;;;;;;23.73;12.57;;;9.80;99.90;;;;;;5025204;28;20537;-66
2021/11/10 09:12:25;;;;;;;20.33;11.20;;;9.70;99.90;;;;;;5002372;28;20049;-66
2021/11/10 09:14:51;;;;;;;24.88;11.75;;;9.70;99.90;;;;;;5005581;28;20191;-67
2021/11/10 09:17:17;;;;;;;23.88;12.25;;;9.80;99.90;;;;;;5021729;28;20038;-67
2021/11/10 09:19:43;;;;;;;23.55;12.63;;;9.80;99.90;;;;;;5025798;28;20037;-66
2021/11/10 09:22:09;;;;;;;24.35;12.05;;;9.80;99.90;;;;;;5021466;28;20493;-66
2021/11/10 09:24:36;;;;;;;25.23;11.25;;;9.90;99.90;;;;;;5003130;28;20061;-66
2021/11/10 09:27:03;;;;;;;21.67;10.73;;;10.00;99.90;;;;;;5004335;28;20454;-66
2021/11/10 09:29:30;;;;;;;19.60;10.65;;;10.00;99.90;;;;;;4999418;28;20049;-66
2021/11/10 09:31:56;;;;;;;23.65;10.88;;;10.10;99.90;;;;;;5027496;28;20054;-66
2021/11/10 09:34:22;;;;;;;26.00;10.77;;;10.10;99.90;;;;;;4999032;28;20049;-66
2021/11/10 09:36:48;;;;;;;26.88;10.73;;;10.20;99.90;;;;;;5017453;28;20045;-66
2021/11/10 09:39:17;;;;;;;23.05;11.20;;;10.20;99.90;;;;;;4986977;28;20140;-66
2021/11/10 09:41:48;;;;;;;27.92;11.23;;;10.20;99.90;;;;;;5026738;28;20049;-66
2021/11/10 09:44:14;;;;;;;26.23;10.85;;;10.30;99.90;;;;;;5002784;28;20061;-66
2021/11/10 09:46:40;;;;;;;23.42;10.63;;;10.30;99.90;;;;;;5024058;28;20033;-66
2021/11/10 09:49:09;;;;;;;24.55;10.18;;;10.30;99.90;;;;;;5003214;28;20382;-66
2021/11/10 09:51:35;;;;;;;24.48;10.45;;;10.40;99.90;;;;;;5021355;28;20048;-66
2021/11/10 09:54:03;;;;;;;20.70;10.07;;;10.40;99.90;;;;;;5021858;28;20045;-66
2021/11/10 09:56:30;;;;;;;20.88;10.23;;;10.40;99.90;;;;;;5005880;28;20436;-67
2021/11/10 09:58:57;;;;;;;22.77;10.68;;;10.50;99.90;;;;;;4998856;28;20064;-66
2021/11/10 10:01:23;;;;;;;24.17;10.20;;;10.50;99.90;;;;;;5028268;28;20037;-66
2021/11/10 10:03:52;;;;;;;22.77;9.98;;;10.60;99.90;;;;;;5003968;28;20091;-66
2021/11/10 10:06:18;;;;;;;23.08;10.35;;;10.60;99.90;;;;;;5003679;28;20046;-66
2021/11/10 10:08:46;;;;;;;19.83;9.82;;;10.60;99.90;;;;;;5003909;28;20489;-66
2021/11/10 10:11:13;;;;;;;23.25;9.23;;;10.60;99.90;;;;;;5004112;28;20053;-66
2021/11/10 10:13:39;;;;;;;18.90;9.25;;;10.60;99.90;;;;;;5021222;28;20069;-66
2021/11/10 10:16:06;;;;;;;20.17;9.82;;;10.60;99.90;;;;;;5017451;28;20402;-66
2021/11/10 10:18:32;;;;;;;20.58;10.80;;;10.60;99.90;;;;;;5030699;28;20053;-66
2021/11/10 10:21:02;;;;;;;18.63;9.55;;;10.60;99.90;;;;;;4997734;28;20116;-66
2021/11/10 10:23:31;;;;;;;22.40;10.18;;;10.60;99.90;;;;;;5025864;28;20107;-66
2021/11/10 10:26:06;;;;;;;21.08;9.80;;;10.60;99.90;;;;;;5015627;28;20046;-66
2021/11/10 10:28:36;;;;;;;24.55;9.75;;;10.60;99.90;;;;;;5030525;28;20029;-66
2021/11/10 10:31:06;;;;;;;22.58;9.52;;;10.50;99.90;;;;;;5026226;28;20496;-66
2021/11/10 10:33:37;;;;;;;21.30;9.60;;;10.50;99.90;;;;;;5009943;28;20049;-66
2021/11/10 10:36:14;;;;;;;24.05;10.18;;;10.50;99.90;;;;;;5025704;28;20033;-66
2021/11/10 10:38:41;;;;;;;24.75;10.57;;;10.40;99.90;;;;;;5028400;28;20095;-66
2021/11/10 10:41:09;;;;;;;20.42;9.80;;;10.40;99.90;;;;;;5001867;28;20413;-66
2021/11/10 10:43:49;;;;;;;22.13;9.35;;;10.40;99.90;;;;;;5028367;28;20045;-66
2021/11/10 10:46:17;;;;;;;22.80;10.40;;;10.30;99.90;;;;;;5022144;28;20037;-66
2021/11/10 10:48:44;;;;;;;20.88;9.32;;;10.30;99.90;;;;;;5009552;28;20050;-66
2021/11/10 10:51:16;;;;;;;20.42;9.60;;;10.30;99.90;;;;;;4982874;28;20054;-66
2021/11/10 10:53:51;;;;;;;22.10;10.35;;;10.30;99.90;;;;;;5007339;28;20052;-66
2021/11/10 10:56:22;;;;;;;20.13;9.80;;;10.30;99.90;;;;;;5021582;28;20124;-66
2021/11/10 10:58:50;;;;;;;20.45;9.35;;;10.30;99.90;;;;;;5027529;28;20545;-66
2021/11/10 11:01:25;;;;;;;25.27;9.73;;;10.30;99.90;;;;;;5023557;28;20105;-66
2021/11/10 11:04:00;;;;;;;20.27;9.50;;;10.30;99.90;;;;;;5009915;28;20059;-66
2021/11/10 11:06:40;;;;;;;19.42;9.23;;;10.30;99.90;;;;;;5003739;28;20045;-66
2021/11/10 11:09:15;;;;;;;21.45;9.93;;;10.30;99.90;;;;;;4987923;28;20497;-66
2021/11/10 11:11:59;;;;;;;17.65;9.80;;;10.40;99.90;;;;;;5005809;28;20322;-66
2021/11/10 11:15:01;;;;;;;22.13;9.73;;;10.40;99.90;;;;;;5028398;28;20048;-66
2021/11/10 11:17:33;;;;;;;22.23;9.85;;;10.40;99.90;;;;;;5021701;28;20099;-66
2021/11/10 11:20:20;;;;;;;22.48;9.80;;;10.40;99.90;;;;;;5023366;28;20042;-66
2021/11/10 11:22:46;;;;;;;20.73;9.98;;;10.50;99.90;;;;;;5024261;28;20045;-66
2021/11/10 11:25:17;;;;;;;21.60;10.13;;;10.50;99.90;;;;;;5029457;28;20030;-66
2021/11/10 11:27:55;;;;;;;24.58;10.18;;;10.50;99.90;;;;;;5002480;28;20117;-67
2021/11/10 11:30:22;;;;;;;21.45;9.90;;;10.50;99.90;;;;;;5021191;28;20033;-67
2021/11/10 11:32:51;;;;;;;17.85;8.45;;;10.60;99.90;;;;;;5007348;28;20477;-67
2021/11/10 11:35:22;;;;;;;18.35;9.15;;;10.60;99.90;;;;;;5006780;28;20057;-67
2021/11/10 11:37:49;;;;;;;20.05;9.63;;;10.60;99.90;;;;;;5021921;28;20034;-67
2021/11/10 11:40:19;;;;;;;22.35;9.45;;;10.60;99.90;;;;;;5026825;28;20552;-67
2021/11/10 11:42:49;;;;;;;21.63;9.98;;;10.70;99.90;;;;;;5004285;28;20063;-67
2021/11/10 11:45:16;;;;;;;21.58;10.20;;;10.70;99.90;;;;;;5027638;28;20104;-67
2021/11/10 11:47:45;;;;;;;26.23;10.20;;;10.70;99.90;;;;;;5025178;28;20049;-67
2021/11/10 11:50:11;;;;;;;23.33;11.02;;;10.70;99.90;;;;;;5025479;28;20040;-67
2021/11/10 11:52:37;;;;;;;22.58;10.32;;;10.70;99.90;;;;;;5029552;28;20040;-67
2021/11/10 11:55:13;;;;;;;21.55;9.70;;;10.80;99.90;;;;;;5021025;28;20121;-67
2021/11/10 11:57:44;;;;;;;24.00;9.95;;;10.80;99.90;;;;;;5026782;28;20037;-67
2021/11/10 12:00:11;;;;;;;23.30;10.70;;;10.70;99.90;;;;;;5019714;28;20037;-67
2021/11/10 12:02:50;;;;;;;24.50;10.40;;;10.80;99.90;;;;;;5007348;28;20076;-67
2021/11/10 12:05:26;;;;;;;25.08;9.68;;;10.80;99.90;;;;;;5020736;28;20117;-67
2021/11/10 12:07:57;;;;;;;23.88;9.40;;;10.70;99.90;;;;;;5009801;28;20057;-66
2021/11/10 12:10:23;;;;;;;22.98;9.50;;;10.70;99.90;;;;;;5012443;28;20045;-67
2021/11/10 12:13:19;;;;;;;24.00;10.02;;;10.60;99.90;;;;;;5027856;28;20033;-67
2021/11/10 12:16:05;;;;;;;23.33;10.80;;;10.60;99.90;;;;;;5024113;28;20135;-66
2021/11/10 12:18:43;;;;;;;26.05;10.85;;;10.60;99.90;;;;;;5028264;28;20120;-66
2021/11/10 12:21:09;;;;;;;25.58;11.32;;;10.50;99.90;;;;;;5001833;28;20053;-67
2021/11/10 12:23:50;;;;;;;23.58;10.43;;;10.50;99.90;;;;;;5024802;28;20070;-66
2021/11/10 12:26:16;;;;;;;23.58;9.95;;;10.50;99.90;;;;;;4988637;28;20050;-66
2021/11/10 12:28:59;;;;;;;21.80;9.93;;;10.50;99.90;;;;;;5030096;28;20116;-66
2021/11/10 12:31:35;;;;;;;18.98;8.77;;;10.60;99.90;;;;;;5019884;28;20037;-66
2021/11/10 12:34:02;;;;;;;21.88;10.63;;;10.50;99.90;;;;;;5022144;28;20037;-66
2021/11/10 12:36:49;;;;;;;26.17;11.02;;;10.60;99.90;;;;;;5023545;28;20037;-67
2021/11/10 12:39:25;;;;;;;24.20;11.23;;;10.60;99.90;;;;;;5023957;28;20049;-66
2021/11/10 12:41:59;;;;;;;26.20;10.38;;;10.50;99.90;;;;;;5001554;28;20572;-66
2021/11/10 12:44:28;;;;;;;17.92;9.30;;;10.60;99.90;;;;;;5001241;28;20083;-66
2021/11/10 12:46:53;;;;;;;18.80;8.82;;;10.60;99.90;;;;;;5021896;28;20050;-67